首页
METAR-TAF:

METAR-TAF

机场 :

凡城, 土耳其

纬度: 38-27N, 经度: 043-19E, 海拔: 1667米

当前天气观测

该预报发布于1小时和1分钟前的10:50 UTC
风速9节,风向西转西北,在西西北之间变化
温度 24°C
湿度 57%
气压 1016 hPa
能见度10公里或以上
少量云层高于2000英尺, 积雨云.
散云层高于4000英尺
多云层高于8000英尺
雷暴

METAR: LTCI 091050Z 29009KT 260V320 9999 TS FEW020CB SCT040 BKN080 24/15 Q1016 TEMPO FM1200 09012G22KT -TSRA

时间: 14:51 (11:51 UTC)

预报

该预报发布于1小时和11分钟前的10:40 UTC
预报有效从09日的 12点(UTC)到 09日的 21点(UTC)
风速9节,风向西
能见度10公里或以上
散云层高于4000英尺
多云层高于8000英尺
短暂存在
从 09日的 12点(UTC)到 09日的 16点(UTC)
风速12节,风向,有时为22节阵风
散云层高于2000英尺, 积雨云.
多云层高于3000英尺
雷暴, 小雨
几率 40% :
短暂存在
从 09日的 16点(UTC)到 09日的 20点(UTC)
风速12节,风向,有时为22节阵风
散云层高于2000英尺, 积雨云.
多云层高于3000英尺
雷暴, 小雨

TAF: LTCI 091040Z 0912/0921 27009KT 9999 SCT040 BKN080 TEMPO 0912/0916 09012G22KT -TSRA SCT020CB BKN030 PROB40 TEMPO 0916/0920 09012G22KT -TSRA SCT020CB BKN030

超过4000个机场的气象观测和天气预报(METAR&TAF报告)。

可查询的气象台以黄色和红色小点在地图上表示。

将鼠标移到小点上方,可查看气象台名称。

然后点击查看天气观测和预报。

如需切换地图:点击带黑十字的绿色按钮放大地图;点击带横线的绿色按钮缩小地图;或者点击绿色箭头查看邻近地区的地图。


METAR-TAF: